To NAV CANADA Home Page Login to a new session Search on AWWS site Feedback and Comments Disclaimer Vers la page française équivalente Tips FAQ What's new on the site To the Forecasts and Observations / NOTAM section To "File a Flight Plan" website Publications and other links Update of the User's profile FIC Telephone Numbers My Weather Data Folder Route Weather Data Regional Weather Data Local Weather Data To the Forecasts and Observations / NOTAM section
Request Generated 08/02/2015 at 16:20:08 UTC . Weather information available at that time is displayed.

METAR/TAF

REGINA/REGINA INTL/SK    

METAR CYQR 021600Z 31007KT 15SM FEW035 FEW120 21/13 A3002 RMK CU1AC1
CU TR AC TR SLP171 DENSITY ALT 2900FT=
METAR CYQR 021500Z 34008KT 15SM FEW008 FEW150 FEW300 18/13 A3002 RMK
CU1AC1CI1 CU TR AC TR CI TR SLP171 DENSITY ALT 2600FT=
METAR CYQR 021400Z 34011KT 15SM FEW003 FEW150 16/13 A3000 RMK SF1AC1
SF TR AC TR SLP164 DENSITY ALT 2300FT=

TAF CYQR 021138Z 0212/0312 33006KT P6SM SKC PROB30 0212/0213 3SM BR
BKN006
FM021600 33015G25KT P6SM FEW040
FM022300 33012KT P6SM FEW050
BECMG 0301/0303 34006KT
FM030600 29005KT P6SM SKC
RMK NXT FCST BY 021800Z=
Your time UTC time
Weather data provided by Environment Canada and NAV CANADA